createdAt,value
2023-01-15T00:01:47.342Z,93234.16
2023-01-15T00:06:55.012Z,93235.85
2023-01-15T00:12:02.785Z,93226.33
2023-01-15T00:17:09.708Z,93220.00
2023-01-15T00:22:16.853Z,93220.28
2023-01-15T00:27:42.196Z,93217.65
2023-01-15T00:32:49.687Z,93206.08
2023-01-15T00:37:56.421Z,93210.81
2023-01-15T00:43:03.790Z,93215.00
2023-01-15T00:48:10.636Z,93203.64
2023-01-15T00:53:17.517Z,93182.75
2023-01-15T00:58:24.704Z,93174.08
2023-01-15T01:03:31.968Z,93176.06
2023-01-15T01:08:39.189Z,93173.67
2023-01-15T01:13:47.435Z,93174.44
2023-01-15T01:18:54.911Z,93180.89
2023-01-15T01:24:03.530Z,93168.55
2023-01-15T01:29:12.209Z,93148.73
2023-01-15T01:34:19.317Z,93140.97
2023-01-15T01:39:26.775Z,93137.83
2023-01-15T01:44:41.145Z,93133.27
2023-01-15T01:49:50.911Z,93134.75
2023-01-15T01:54:58.668Z,93119.75
2023-01-15T02:00:07.189Z,93124.42
2023-01-15T02:05:20.616Z,93107.03
2023-01-15T02:10:28.333Z,93102.63
2023-01-15T02:15:48.875Z,93094.30
2023-01-15T02:21:03.254Z,93093.95
2023-01-15T02:26:38.155Z,93086.63
2023-01-15T02:31:45.542Z,93071.91
2023-01-15T02:36:56.325Z,93063.08
2023-01-15T02:42:06.112Z,93058.89
2023-01-15T02:47:14.109Z,93044.03
2023-01-15T02:52:37.040Z,93030.14
2023-01-15T02:57:45.729Z,93024.73
2023-01-15T03:02:59.593Z,93017.55
2023-01-15T03:08:09.554Z,93012.87
2023-01-15T03:13:20.988Z,92994.73
2023-01-15T03:18:30.711Z,92991.27
2023-01-15T03:23:40.868Z,92976.66
2023-01-15T03:28:49.245Z,92977.53
2023-01-15T03:33:56.933Z,92975.41
2023-01-15T03:39:03.991Z,92956.48
2023-01-15T03:44:30.567Z,92958.68
2023-01-15T03:49:48.061Z,92811.38
2023-01-15T03:55:16.713Z,92950.27
2023-01-15T04:00:39.527Z,92932.56
2023-01-15T04:05:47.891Z,92934.81
2023-01-15T04:11:00.633Z,92933.25
2023-01-15T04:16:08.069Z,92931.30
2023-01-15T04:21:14.861Z,92925.66
2023-01-15T04:26:22.383Z,92937.51
2023-01-15T04:31:29.351Z,92931.28
2023-01-15T04:36:36.573Z,92922.36
2023-01-15T04:42:01.017Z,92910.80
2023-01-15T04:47:07.727Z,92906.86
2023-01-15T04:52:14.501Z,92758.59
2023-01-15T04:57:21.481Z,92894.11
2023-01-15T05:02:28.465Z,92885.80
2023-01-15T05:07:35.308Z,92875.05
2023-01-15T05:12:42.095Z,92866.78
2023-01-15T05:17:49.311Z,92864.59
2023-01-15T05:22:56.175Z,92851.03
2023-01-15T05:28:03.166Z,92840.98
2023-01-15T05:33:10.142Z,92843.42
2023-01-15T05:38:16.985Z,92837.92
2023-01-15T05:43:23.711Z,92820.59
2023-01-15T05:48:30.813Z,92819.78
2023-01-15T05:53:38.187Z,92823.09
2023-01-15T05:58:44.887Z,92819.63
2023-01-15T06:03:53.489Z,92809.69
2023-01-15T06:09:00.670Z,92812.07
2023-01-15T06:14:08.690Z,92807.61
2023-01-15T06:19:16.219Z,92804.55
2023-01-15T06:24:23.399Z,92797.16
2023-01-15T06:29:31.112Z,92794.91
2023-01-15T06:34:37.817Z,92799.58
2023-01-15T06:39:44.654Z,92801.27
2023-01-15T06:45:09.176Z,92802.06
2023-01-15T06:50:16.031Z,92804.63
2023-01-15T06:55:23.957Z,92802.61
2023-01-15T07:00:30.914Z,92808.47
2023-01-15T07:05:39.759Z,92807.44
2023-01-15T07:10:46.445Z,92816.71
2023-01-15T07:15:53.384Z,92821.30
2023-01-15T07:21:01.002Z,92822.58
2023-01-15T07:26:08.044Z,92817.83
2023-01-15T07:31:15.688Z,92800.78
2023-01-15T07:36:22.810Z,92802.11
2023-01-15T07:41:48.653Z,92794.33
2023-01-15T07:47:12.757Z,92784.13
2023-01-15T07:52:22.369Z,92788.50
2023-01-15T07:57:29.098Z,92774.91
2023-01-15T08:02:35.697Z,92766.18
2023-01-15T08:07:44.221Z,92749.72
2023-01-15T08:13:10.813Z,92750.33
2023-01-15T08:18:17.520Z,92766.00
2023-01-15T08:23:24.314Z,92748.92
2023-01-15T08:28:31.086Z,92748.83
2023-01-15T08:33:37.800Z,92753.51
2023-01-15T08:38:44.878Z,92753.09
2023-01-15T08:43:51.985Z,92758.34
2023-01-15T08:48:59.478Z,92761.13
2023-01-15T08:54:06.414Z,92749.17
2023-01-15T08:59:13.636Z,92755.80
2023-01-15T09:04:23.217Z,92757.91
2023-01-15T09:09:30.525Z,92742.63
2023-01-15T09:14:55.462Z,92735.00
2023-01-15T09:19:46.056Z,92730.27
2023-01-15T09:24:52.754Z,92727.89
2023-01-15T09:29:59.932Z,92714.37
2023-01-15T09:35:07.378Z,92711.17
2023-01-15T09:40:40.498Z,92709.78
2023-01-15T09:46:03.914Z,92697.23
2023-01-15T09:51:30.207Z,92691.42
2023-01-15T09:56:39.817Z,92684.84
2023-01-15T10:01:47.282Z,92675.11
2023-01-15T10:07:04.313Z,92684.46
2023-01-15T10:12:36.259Z,92681.64
2023-01-15T10:17:49.007Z,92689.89
2023-01-15T10:23:40.558Z,92681.23
2023-01-15T10:28:51.735Z,92678.85
2023-01-15T10:34:25.190Z,92665.84
2023-01-15T10:40:00.402Z,92652.06
2023-01-15T10:45:28.668Z,92633.66
2023-01-15T10:50:36.938Z,92635.85
2023-01-15T10:55:54.087Z,92629.40
2023-01-15T11:01:08.522Z,92626.27
2023-01-15T11:06:22.340Z,92634.12
2023-01-15T11:12:00.036Z,92618.67
2023-01-15T11:17:28.750Z,92624.45
2023-01-15T11:22:39.803Z,92614.70
2023-01-15T11:27:49.711Z,92602.19
2023-01-15T11:33:04.393Z,92603.47
2023-01-15T11:38:16.332Z,92587.45
2023-01-15T11:43:47.640Z,92584.90
2023-01-15T11:49:12.265Z,92570.72
2023-01-15T11:54:18.537Z,92587.80
2023-01-15T11:59:25.680Z,92584.99
2023-01-15T12:04:45.396Z,92566.31
2023-01-15T12:10:12.426Z,92552.89
2023-01-15T12:15:55.686Z,92534.47
2023-01-15T12:21:06.912Z,92533.08
2023-01-15T12:26:36.967Z,92541.02
2023-01-15T12:31:48.177Z,92525.27
2023-01-15T12:37:10.442Z,92525.00
2023-01-15T12:42:39.094Z,92516.80
2023-01-15T12:47:53.376Z,92508.48
2023-01-15T12:53:17.459Z,92511.52
2023-01-15T12:58:50.739Z,92503.18
2023-01-15T13:04:31.153Z,92491.92
2023-01-15T13:09:51.276Z,92496.54
2023-01-15T13:14:58.347Z,92502.02
2023-01-15T13:20:37.954Z,92496.94
2023-01-15T13:26:29.858Z,92480.55
2023-01-15T13:31:56.288Z,92475.19
2023-01-15T13:37:28.424Z,92474.58
2023-01-15T13:42:40.369Z,92484.41
2023-01-15T13:47:53.933Z,92466.91
2023-01-15T13:53:16.118Z,92479.25
2023-01-15T13:58:29.261Z,92470.81
2023-01-15T14:03:38.887Z,92474.28
2023-01-15T14:08:47.817Z,92477.16
2023-01-15T14:14:24.435Z,92494.86
2023-01-15T14:19:47.385Z,92498.41
2023-01-15T14:25:10.776Z,92507.17
2023-01-15T14:30:41.155Z,92519.16
2023-01-15T14:35:50.151Z,92531.83
2023-01-15T14:41:00.685Z,92544.41
2023-01-15T14:46:17.760Z,92547.55
2023-01-15T14:51:32.032Z,92558.67
2023-01-15T14:56:51.951Z,92565.14
2023-01-15T15:02:06.233Z,92564.03
2023-01-15T15:07:19.325Z,92561.92
2023-01-15T15:13:06.262Z,92553.01
2023-01-15T15:18:36.507Z,92549.06
2023-01-15T15:23:52.045Z,92552.17
2023-01-15T15:29:14.550Z,92560.08
2023-01-15T15:34:26.424Z,92581.55
2023-01-15T15:39:46.180Z,92571.30
2023-01-15T15:45:14.862Z,92577.95
2023-01-15T15:50:29.407Z,92580.92
2023-01-15T15:55:45.341Z,92581.20
2023-01-15T16:00:54.297Z,92591.73
2023-01-15T16:06:08.587Z,92599.59
2023-01-15T16:11:16.503Z,92608.88
2023-01-15T16:16:25.548Z,92616.45
2023-01-15T16:21:41.426Z,92634.29
2023-01-15T16:26:52.813Z,92639.06
2023-01-15T16:32:01.175Z,92651.81
2023-01-15T16:37:15.254Z,92654.17
2023-01-15T16:42:35.573Z,92657.05
2023-01-15T16:47:42.661Z,92664.94
2023-01-15T16:53:00.336Z,92671.77
2023-01-15T16:58:19.962Z,92688.38
2023-01-15T17:03:30.087Z,92704.67
2023-01-15T17:08:39.727Z,92710.72
2023-01-15T17:13:46.879Z,92715.97
2023-01-15T17:18:54.392Z,92729.10
2023-01-15T17:24:01.121Z,92739.16
2023-01-15T17:29:08.176Z,92732.00
2023-01-15T17:34:14.892Z,92728.31
2023-01-15T17:39:21.846Z,92740.43
2023-01-15T17:44:29.077Z,92740.22
2023-01-15T17:49:36.523Z,92748.64
2023-01-15T17:55:00.482Z,92619.99
2023-01-15T18:00:25.703Z,92760.52
2023-01-15T18:05:34.762Z,92766.33
2023-01-15T18:10:41.865Z,92781.87
2023-01-15T18:15:48.698Z,92785.56
2023-01-15T18:20:55.584Z,92796.63
2023-01-15T18:26:07.668Z,92799.80
2023-01-15T18:31:15.060Z,92795.58
2023-01-15T18:36:22.488Z,92792.69
2023-01-15T18:41:31.082Z,92786.59
2023-01-15T18:46:48.787Z,92801.57
2023-01-15T18:52:13.458Z,92801.31
2023-01-15T18:57:19.191Z,92796.80
2023-01-15T19:02:25.755Z,92796.80
2023-01-15T19:07:33.570Z,92804.13
2023-01-15T19:12:41.044Z,92788.34
2023-01-15T19:18:06.046Z,92785.66
2023-01-15T19:23:12.979Z,92788.81
2023-01-15T19:28:22.403Z,92783.30
2023-01-15T19:33:29.613Z,92789.87
2023-01-15T19:38:41.692Z,92785.87
2023-01-15T19:44:05.806Z,92791.70
2023-01-15T19:49:39.551Z,92787.75
2023-01-15T19:54:58.735Z,92798.27
2023-01-15T20:00:09.242Z,92794.02
2023-01-15T20:05:17.129Z,92789.33
2023-01-15T20:10:26.523Z,92804.11
2023-01-15T20:15:33.641Z,92701.56
2023-01-15T20:20:41.071Z,92806.44
2023-01-15T20:25:49.437Z,92807.76
2023-01-15T20:30:56.657Z,92799.38
2023-01-15T20:36:06.077Z,92803.32
2023-01-15T20:41:15.030Z,92818.21
2023-01-15T20:46:21.772Z,92812.22
2023-01-15T20:51:28.780Z,92818.28
2023-01-15T20:56:35.531Z,92831.09
2023-01-15T21:01:43.048Z,92825.47
2023-01-15T21:06:49.993Z,92818.31
2023-01-15T21:11:56.664Z,92817.47
2023-01-15T21:17:03.549Z,92814.24
2023-01-15T21:22:10.743Z,92810.98
2023-01-15T21:27:18.324Z,92807.56
2023-01-15T21:32:26.641Z,92812.45
2023-01-15T21:37:33.842Z,92818.12
2023-01-15T21:42:57.959Z,92818.38
2023-01-15T21:48:05.393Z,92824.30
2023-01-15T21:53:12.487Z,92823.98
2023-01-15T21:58:20.365Z,92817.22
2023-01-15T22:03:27.313Z,92810.22
2023-01-15T22:08:34.962Z,92808.38
2023-01-15T22:13:42.012Z,92809.62
2023-01-15T22:18:48.655Z,92795.63
2023-01-15T22:23:55.915Z,92797.61
2023-01-15T22:29:03.332Z,92770.45
2023-01-15T22:34:10.765Z,92778.90
2023-01-15T22:39:18.037Z,92781.19
2023-01-15T22:44:24.927Z,92780.45
2023-01-15T22:49:32.801Z,92764.21
2023-01-15T22:54:40.066Z,92759.33
2023-01-15T22:59:46.842Z,92752.06
2023-01-15T23:04:53.610Z,92758.52
2023-01-15T23:10:00.656Z,92751.56
2023-01-15T23:15:09.461Z,92742.69
2023-01-15T23:20:16.460Z,92736.36
2023-01-15T23:25:23.417Z,92722.77
2023-01-15T23:30:30.266Z,92727.59
2023-01-15T23:35:37.677Z,92730.07
2023-01-15T23:40:45.946Z,92733.44
2023-01-15T23:46:11.026Z,92722.11
2023-01-15T23:51:18.090Z,92719.84
2023-01-15T23:56:25.338Z,92718.25
